sensor_id;sensor_type;location;lat;lon;timestamp;pressure;altitude;pressure_sealevel;temperature;humidity
8575;BME280;4325;42.520;27.448;2023-02-23T00:00:30;101199.25;;;9.03;100.00
8575;BME280;4325;42.520;27.448;2023-02-23T00:02:59;101198.97;;;9.00;100.00
8575;BME280;4325;42.520;27.448;2023-02-23T00:05:27;101203.41;;;9.06;100.00
8575;BME280;4325;42.520;27.448;2023-02-23T00:07:54;101200.94;;;9.04;100.00
8575;BME280;4325;42.520;27.448;2023-02-23T00:10:22;101196.63;;;9.08;100.00
8575;BME280;4325;42.520;27.448;2023-02-23T00:12:54;101196.03;;;9.06;100.00
8575;BME280;4325;42.520;27.448;2023-02-23T00:15:23;101195.66;;;8.98;100.00
8575;BME280;4325;42.520;27.448;2023-02-23T00:17:52;101191.00;;;8.98;100.00
8575;BME280;4325;42.520;27.448;2023-02-23T00:20:20;101197.78;;;8.96;100.00
8575;BME280;4325;42.520;27.448;2023-02-23T00:22:53;101204.53;;;8.88;100.00
8575;BME280;4325;42.520;27.448;2023-02-23T00:25:21;101196.25;;;8.83;100.00
8575;BME280;4325;42.520;27.448;2023-02-23T00:27:49;101191.28;;;8.80;100.00
8575;BME280;4325;42.520;27.448;2023-02-23T00:30:17;101190.34;;;8.75;100.00
8575;BME280;4325;42.520;27.448;2023-02-23T00:32:46;101185.16;;;8.73;100.00
8575;BME280;4325;42.520;27.448;2023-02-23T00:35:14;101195.50;;;8.71;100.00
8575;BME280;4325;42.520;27.448;2023-02-23T00:37:43;101190.75;;;8.67;100.00
8575;BME280;4325;42.520;27.448;2023-02-23T00:40:12;101189.97;;;8.66;100.00
8575;BME280;4325;42.520;27.448;2023-02-23T00:42:42;101192.09;;;8.64;100.00
8575;BME280;4325;42.520;27.448;2023-02-23T00:45:10;101195.66;;;8.64;100.00
8575;BME280;4325;42.520;27.448;2023-02-23T00:47:39;101194.75;;;8.59;100.00
8575;BME280;4325;42.520;27.448;2023-02-23T00:50:10;101197.47;;;8.59;100.00
8575;BME280;4325;42.520;27.448;2023-02-23T00:52:40;101186.63;;;8.64;100.00
8575;BME280;4325;42.520;27.448;2023-02-23T00:55:08;101182.75;;;8.60;100.00
8575;BME280;4325;42.520;27.448;2023-02-23T00:57:35;101180.41;;;8.52;100.00
8575;BME280;4325;42.520;27.448;2023-02-23T01:00:03;101174.16;;;8.51;100.00
8575;BME280;4325;42.520;27.448;2023-02-23T01:02:41;101184.56;;;8.54;100.00
8575;BME280;4325;42.520;27.448;2023-02-23T01:05:10;101173.16;;;8.57;100.00
8575;BME280;4325;42.520;27.448;2023-02-23T01:07:38;101189.53;;;8.57;100.00
8575;BME280;4325;42.520;27.448;2023-02-23T01:10:06;101182.75;;;8.60;100.00
8575;BME280;4325;42.520;27.448;2023-02-23T01:12:45;101180.09;;;8.65;100.00
8575;BME280;4325;42.520;27.448;2023-02-23T01:15:13;101178.44;;;8.64;100.00
8575;BME280;4325;42.520;27.448;2023-02-23T01:17:40;101183.09;;;8.63;100.00
8575;BME280;4325;42.520;27.448;2023-02-23T01:20:11;101180.50;;;8.57;100.00
8575;BME280;4325;42.520;27.448;2023-02-23T01:22:42;101178.97;;;8.61;100.00
8575;BME280;4325;42.520;27.448;2023-02-23T01:25:09;101188.22;;;8.60;100.00
8575;BME280;4325;42.520;27.448;2023-02-23T01:27:37;101184.91;;;8.58;100.00
8575;BME280;4325;42.520;27.448;2023-02-23T01:30:06;101182.66;;;8.55;100.00
8575;BME280;4325;42.520;27.448;2023-02-23T01:32:34;101183.22;;;8.57;100.00
8575;BME280;4325;42.520;27.448;2023-02-23T01:35:03;101183.22;;;8.57;100.00
8575;BME280;4325;42.520;27.448;2023-02-23T01:37:33;101184.91;;;8.58;100.00
8575;BME280;4325;42.520;27.448;2023-02-23T01:40:01;101182.56;;;8.50;100.00
8575;BME280;4325;42.520;27.448;2023-02-23T01:42:37;101181.41;;;8.46;100.00
8575;BME280;4325;42.520;27.448;2023-02-23T01:45:27;101181.41;;;8.46;100.00
8575;BME280;4325;42.520;27.448;2023-02-23T01:47:56;101172.41;;;8.45;100.00
8575;BME280;4325;42.520;27.448;2023-02-23T01:50:27;101176.44;;;8.43;100.00
8575;BME280;4325;42.520;27.448;2023-02-23T01:52:57;101180.75;;;8.39;100.00
8575;BME280;4325;42.520;27.448;2023-02-23T01:55:26;101184.06;;;8.41;100.00
8575;BME280;4325;42.520;27.448;2023-02-23T01:58:00;101180.75;;;8.39;100.00
8575;BME280;4325;42.520;27.448;2023-02-23T02:00:30;101181.34;;;8.41;100.00
8575;BME280;4325;42.520;27.448;2023-02-23T02:03:04;101180.59;;;8.45;100.00
8575;BME280;4325;42.520;27.448;2023-02-23T02:05:35;101172.66;;;8.44;100.00
8575;BME280;4325;42.520;27.448;2023-02-23T02:08:08;101176.72;;;8.41;100.00
8575;BME280;4325;42.520;27.448;2023-02-23T02:10:36;101189.53;;;8.41;100.00
8575;BME280;4325;42.520;27.448;2023-02-23T02:13:14;101188.94;;;8.39;100.00
8575;BME280;4325;42.520;27.448;2023-02-23T02:16:12;101179.66;;;8.40;100.00
8575;BME280;4325;42.520;27.448;2023-02-23T02:18:57;101180.75;;;8.39;100.00
8575;BME280;4325;42.520;27.448;2023-02-23T02:21:54;101187.53;;;8.36;100.00
8575;BME280;4325;42.520;27.448;2023-02-23T02:27:41;101187.84;;;8.40;100.00
8575;BME280;4325;42.520;27.448;2023-02-23T02:30:35;101186.31;;;8.44;100.00
8575;BME280;4325;42.520;27.448;2023-02-23T02:36:24;101185.97;;;8.40;100.00
8575;BME280;4325;42.520;27.448;2023-02-23T02:39:00;101182.38;;;8.40;100.00
8575;BME280;4325;42.520;27.448;2023-02-23T02:41:36;101184.06;;;8.41;100.00
8575;BME280;4325;42.520;27.448;2023-02-23T02:44:14;101179.19;;;8.43;100.00
8575;BME280;4325;42.520;27.448;2023-02-23T02:46:46;101169.84;;;8.39;100.00
8575;BME280;4325;42.520;27.448;2023-02-23T02:49:28;101185.56;;;8.48;100.00
8575;BME280;4325;42.520;27.448;2023-02-23T02:51:59;101186.72;;;8.52;100.00
8575;BME280;4325;42.520;27.448;2023-02-23T02:54:35;101189.69;;;8.51;100.00
8575;BME280;4325;42.520;27.448;2023-02-23T02:57:04;101194.06;;;8.52;100.00
8575;BME280;4325;42.520;27.448;2023-02-23T02:59:42;101192.81;;;8.43;100.00
8575;BME280;4325;42.520;27.448;2023-02-23T03:02:26;101195.63;;;8.48;100.00
8575;BME280;4325;42.520;27.448;2023-02-23T03:05:14;101199.78;;;8.50;100.00
8575;BME280;4325;42.520;27.448;2023-02-23T03:08:06;101194.91;;;8.52;100.00
8575;BME280;4325;42.520;27.448;2023-02-23T03:10:56;101193.34;;;8.56;100.00
8575;BME280;4325;42.520;27.448;2023-02-23T03:13:50;101188.56;;;8.63;100.00
8575;BME280;4325;42.520;27.448;2023-02-23T03:16:43;101189.53;;;8.74;100.00
8575;BME280;4325;42.520;27.448;2023-02-23T03:19:33;101192.34;;;8.79;100.00
8575;BME280;4325;42.520;27.448;2023-02-23T03:22:23;101188.84;;;8.84;100.00
8575;BME280;4325;42.520;27.448;2023-02-23T03:25:13;101186.38;;;8.82;100.00
8575;BME280;4325;42.520;27.448;2023-02-23T03:28:07;101201.53;;;8.90;100.00
8575;BME280;4325;42.520;27.448;2023-02-23T03:30:59;101204.53;;;8.88;100.00
8575;BME280;4325;42.520;27.448;2023-02-23T03:33:57;101220.97;;;8.93;100.00
8575;BME280;4325;42.520;27.448;2023-02-23T03:36:48;101210.88;;;8.94;100.00
8575;BME280;4325;42.520;27.448;2023-02-23T03:39:39;101213.38;;;8.95;100.00
8575;BME280;4325;42.520;27.448;2023-02-23T03:42:29;101213.84;;;8.92;100.00
8575;BME280;4325;42.520;27.448;2023-02-23T03:45:19;101216.31;;;8.94;100.00
8575;BME280;4325;42.520;27.448;2023-02-23T03:48:08;101215.66;;;9.03;100.00
8575;BME280;4325;42.520;27.448;2023-02-23T03:50:55;101216.22;;;9.05;100.00
8575;BME280;4325;42.520;27.448;2023-02-23T03:53:43;101216.66;;;9.14;100.00
8575;BME280;4325;42.520;27.448;2023-02-23T03:56:30;101214.31;;;9.22;100.00
8575;BME280;4325;42.520;27.448;2023-02-23T03:59:16;101221.25;;;9.30;100.00
8575;BME280;4325;42.520;27.448;2023-02-23T04:02:05;101220.44;;;9.29;100.00
8575;BME280;4325;42.520;27.448;2023-02-23T04:04:52;101226.56;;;9.37;100.00
8575;BME280;4325;42.520;27.448;2023-02-23T04:07:39;101224.38;;;9.39;100.00
8575;BME280;4325;42.520;27.448;2023-02-23T04:10:25;101223.38;;;9.45;100.00
8575;BME280;4325;42.520;27.448;2023-02-23T04:13:13;101224.97;;;9.41;100.00
8575;BME280;4325;42.520;27.448;2023-02-23T04:15:48;101230.00;;;9.49;100.00
8575;BME280;4325;42.520;27.448;2023-02-23T04:18:19;101226.50;;;9.53;100.00
8575;BME280;4325;42.520;27.448;2023-02-23T04:20:47;101221.34;;;9.57;100.00
8575;BME280;4325;42.520;27.448;2023-02-23T04:23:14;101231.16;;;9.53;100.00
8575;BME280;4325;42.520;27.448;2023-02-23T04:25:41;101231.47;;;9.56;100.00
8575;BME280;4325;42.520;27.448;2023-02-23T04:28:08;101229.31;;;9.58;100.00
8575;BME280;4325;42.520;27.448;2023-02-23T04:30:35;101226.66;;;9.63;100.00
8575;BME280;4325;42.520;27.448;2023-02-23T04:33:03;101224.16;;;9.62;100.00
8575;BME280;4325;42.520;27.448;2023-02-23T04:35:31;101229.13;;;9.65;100.00
8575;BME280;4325;42.520;27.448;2023-02-23T04:37:59;101206.03;;;9.56;100.00
8575;BME280;4325;42.520;27.448;2023-02-23T04:40:26;101221.47;;;9.67;100.00
8575;BME280;4325;42.520;27.448;2023-02-23T04:42:54;101222.88;;;9.69;100.00
8575;BME280;4325;42.520;27.448;2023-02-23T04:45:22;101198.06;;;9.54;100.00
8575;BME280;4325;42.520;27.448;2023-02-23T04:47:49;101225.41;;;9.76;100.00
8575;BME280;4325;42.520;27.448;2023-02-23T04:50:16;101226.53;;;9.75;100.00
8575;BME280;4325;42.520;27.448;2023-02-23T04:52:45;101218.81;;;9.72;100.00
8575;BME280;4325;42.520;27.448;2023-02-23T04:55:16;101224.63;;;9.75;100.00
8575;BME280;4325;42.520;27.448;2023-02-23T04:57:44;101224.34;;;9.77;100.00
8575;BME280;4325;42.520;27.448;2023-02-23T05:00:12;101223.28;;;9.78;100.00
8575;BME280;4325;42.520;27.448;2023-02-23T05:02:39;101221.88;;;9.75;100.00
8575;BME280;4325;42.520;27.448;2023-02-23T05:05:07;101226.09;;;9.83;100.00
8575;BME280;4325;42.520;27.448;2023-02-23T05:07:35;101231.56;;;9.83;100.00
8575;BME280;4325;42.520;27.448;2023-02-23T05:10:04;101223.09;;;9.84;100.00
8575;BME280;4325;42.520;27.448;2023-02-23T05:12:31;101236.31;;;9.92;100.00
8575;BME280;4325;42.520;27.448;2023-02-23T05:14:58;101245.38;;;9.98;100.00
8575;BME280;4325;42.520;27.448;2023-02-23T05:17:25;101250.34;;;10.01;100.00
8575;BME280;4325;42.520;27.448;2023-02-23T05:19:52;101247.63;;;10.01;100.00
8575;BME280;4325;42.520;27.448;2023-02-23T05:22:19;101257.50;;;10.02;100.00
8575;BME280;4325;42.520;27.448;2023-02-23T05:24:46;101252.03;;;10.02;100.00
8575;BME280;4325;42.520;27.448;2023-02-23T05:27:14;101255.25;;;9.99;100.00
8575;BME280;4325;42.520;27.448;2023-02-23T05:29:42;101262.13;;;10.02;100.00
8575;BME280;4325;42.520;27.448;2023-02-23T05:32:09;101269.06;;;10.09;100.00
8575;BME280;4325;42.520;27.448;2023-02-23T05:34:36;101278.44;;;10.13;100.00
8575;BME280;4325;42.520;27.448;2023-02-23T05:37:03;101283.47;;;10.21;100.00
8575;BME280;4325;42.520;27.448;2023-02-23T05:39:31;101283.03;;;10.29;100.00
8575;BME280;4325;42.520;27.448;2023-02-23T05:41:58;101290.13;;;10.30;100.00
8575;BME280;4325;42.520;27.448;2023-02-23T05:44:26;101293.78;;;10.36;100.00
8575;BME280;4325;42.520;27.448;2023-02-23T05:46:53;101296.28;;;10.42;100.00
8575;BME280;4325;42.520;27.448;2023-02-23T05:49:20;101296.34;;;10.47;100.00
8575;BME280;4325;42.520;27.448;2023-02-23T05:51:47;101304.13;;;10.55;100.00
8575;BME280;4325;42.520;27.448;2023-02-23T05:54:14;101313.47;;;10.59;100.00
8575;BME280;4325;42.520;27.448;2023-02-23T05:56:41;101314.41;;;10.70;100.00
8575;BME280;4325;42.520;27.448;2023-02-23T05:59:08;101319.66;;;10.77;100.00
8575;BME280;4325;42.520;27.448;2023-02-23T06:01:36;101323.03;;;10.84;100.00
8575;BME280;4325;42.520;27.448;2023-02-23T06:04:03;101324.41;;;10.86;100.00
8575;BME280;4325;42.520;27.448;2023-02-23T06:06:30;101317.06;;;10.92;100.00
8575;BME280;4325;42.520;27.448;2023-02-23T06:08:57;101321.00;;;11.01;100.00
8575;BME280;4325;42.520;27.448;2023-02-23T06:11:24;101330.94;;;11.07;100.00
8575;BME280;4325;42.520;27.448;2023-02-23T06:13:51;101340.31;;;11.16;100.00
8575;BME280;4325;42.520;27.448;2023-02-23T06:16:18;101338.75;;;11.25;100.00
8575;BME280;4325;42.520;27.448;2023-02-23T06:18:46;101345.38;;;11.29;100.00
8575;BME280;4325;42.520;27.448;2023-02-23T06:21:13;101344.31;;;11.35;100.00
8575;BME280;4325;42.520;27.448;2023-02-23T06:23:40;101353.94;;;11.38;100.00
8575;BME280;4325;42.520;27.448;2023-02-23T06:26:07;101350.63;;;11.36;100.00
8575;BME280;4325;42.520;27.448;2023-02-23T06:28:34;101359.69;;;11.36;100.00
8575;BME280;4325;42.520;27.448;2023-02-23T06:31:01;101356.94;;;11.36;100.00
8575;BME280;4325;42.520;27.448;2023-02-23T06:33:28;101358.91;;;11.41;100.00
8575;BME280;4325;42.520;27.448;2023-02-23T06:35:56;101355.88;;;11.42;100.00
8575;BME280;4325;42.520;27.448;2023-02-23T06:38:23;101363.59;;;11.45;100.00
8575;BME280;4325;42.520;27.448;2023-02-23T06:40:50;101364.97;;;11.48;100.00
8575;BME280;4325;42.520;27.448;2023-02-23T06:43:16;101363.13;;;11.53;100.00
8575;BME280;4325;42.520;27.448;2023-02-23T06:45:45;101368.38;;;11.60;100.00
8575;BME280;4325;42.520;27.448;2023-02-23T06:48:12;101370.88;;;11.66;100.00
8575;BME280;4325;42.520;27.448;2023-02-23T06:50:39;101372.06;;;11.70;100.00
8575;BME280;4325;42.520;27.448;2023-02-23T06:53:07;101374.78;;;11.70;100.00
8575;BME280;4325;42.520;27.448;2023-02-23T06:55:34;101371.78;;;11.72;100.00
8575;BME280;4325;42.520;27.448;2023-02-23T06:58:01;101372.06;;;11.75;100.00
8575;BME280;4325;42.520;27.448;2023-02-23T07:00:30;101375.94;;;11.79;100.00
8575;BME280;4325;42.520;27.448;2023-02-23T07:02:57;101366.56;;;11.75;100.00
8575;BME280;4325;42.520;27.448;2023-02-23T07:05:25;101375.59;;;11.71;100.00
8575;BME280;4325;42.520;27.448;2023-02-23T07:07:52;101378.28;;;11.66;100.00
8575;BME280;4325;42.520;27.448;2023-02-23T07:10:20;101381.84;;;11.66;100.00
8575;BME280;4325;42.520;27.448;2023-02-23T07:12:47;101384.59;;;11.66;100.00
8575;BME280;4325;42.520;27.448;2023-02-23T07:15:14;101382.19;;;11.70;100.00
8575;BME280;4325;42.520;27.448;2023-02-23T07:17:42;101386.13;;;11.84;100.00
8575;BME280;4325;42.520;27.448;2023-02-23T07:20:13;101381.16;;;11.81;100.00
8575;BME280;4325;42.520;27.448;2023-02-23T07:22:40;101388.66;;;11.96;100.00
8575;BME280;4325;42.520;27.448;2023-02-23T07:25:07;101387.13;;;12.15;100.00
8575;BME280;4325;42.520;27.448;2023-02-23T07:27:36;101388.59;;;12.32;100.00
8575;BME280;4325;42.520;27.448;2023-02-23T07:30:04;101392.22;;;12.38;100.00
8575;BME280;4325;42.520;27.448;2023-02-23T07:32:31;101394.91;;;12.33;100.00
8575;BME280;4325;42.520;27.448;2023-02-23T07:34:58;101384.81;;;12.38;100.00
8575;BME280;4325;42.520;27.448;2023-02-23T07:37:25;101388.97;;;12.46;100.00
8575;BME280;4325;42.520;27.448;2023-02-23T07:39:52;101390.03;;;12.45;100.00
8575;BME280;4325;42.520;27.448;2023-02-23T07:42:19;101394.44;;;12.51;100.00
8575;BME280;4325;42.520;27.448;2023-02-23T07:44:47;101396.44;;;12.61;100.00
8575;BME280;4325;42.520;27.448;2023-02-23T07:47:14;101385.75;;;12.74;100.00
8575;BME280;4325;42.520;27.448;2023-02-23T07:49:41;101404.47;;;12.92;100.00
8575;BME280;4325;42.520;27.448;2023-02-23T07:52:08;101406.81;;;13.31;99.16
8575;BME280;4325;42.520;27.448;2023-02-23T07:54:34;101401.84;;;13.73;97.52
8575;BME280;4325;42.520;27.448;2023-02-23T07:57:01;101407.31;;;14.08;94.63
8575;BME280;4325;42.520;27.448;2023-02-23T07:59:28;101415.75;;;14.52;92.50
8575;BME280;4325;42.520;27.448;2023-02-23T08:01:57;101414.88;;;14.67;89.24
8575;BME280;4325;42.520;27.448;2023-02-23T08:04:25;101413.75;;;14.63;87.94
8575;BME280;4325;42.520;27.448;2023-02-23T08:06:52;101413.50;;;14.64;87.54
8575;BME280;4325;42.520;27.448;2023-02-23T08:09:19;101416.94;;;14.90;86.42
8575;BME280;4325;42.520;27.448;2023-02-23T08:11:46;101413.13;;;14.86;84.68
8575;BME280;4325;42.520;27.448;2023-02-23T08:14:13;101413.66;;;14.88;84.54
8575;BME280;4325;42.520;27.448;2023-02-23T08:16:40;101414.13;;;15.00;83.73
8575;BME280;4325;42.520;27.448;2023-02-23T08:19:08;101418.75;;;15.09;83.21
8575;BME280;4325;42.520;27.448;2023-02-23T08:21:35;101422.75;;;15.32;81.40
8575;BME280;4325;42.520;27.448;2023-02-23T08:24:02;101426.84;;;15.45;80.93
8575;BME280;4325;42.520;27.448;2023-02-23T08:26:29;101424.88;;;15.84;79.32
8575;BME280;4325;42.520;27.448;2023-02-23T08:28:56;101422.00;;;16.23;75.84
8575;BME280;4325;42.520;27.448;2023-02-23T08:31:23;101436.19;;;16.40;73.61
8575;BME280;4325;42.520;27.448;2023-02-23T08:33:52;101438.44;;;16.62;72.42
8575;BME280;4325;42.520;27.448;2023-02-23T08:36:20;101441.56;;;16.55;70.11
8575;BME280;4325;42.520;27.448;2023-02-23T08:38:47;101433.25;;;16.55;70.56
8575;BME280;4325;42.520;27.448;2023-02-23T08:41:15;101457.63;;;16.48;71.00
8575;BME280;4325;42.520;27.448;2023-02-23T08:43:42;101444.00;;;16.33;71.12
8575;BME280;4325;42.520;27.448;2023-02-23T08:46:08;101454.22;;;16.32;71.09
8575;BME280;4325;42.520;27.448;2023-02-23T08:48:35;101455.44;;;16.21;71.85
8575;BME280;4325;42.520;27.448;2023-02-23T08:51:04;101456.00;;;16.47;71.83
8575;BME280;4325;42.520;27.448;2023-02-23T08:53:33;101463.81;;;16.69;70.14
8575;BME280;4325;42.520;27.448;2023-02-23T08:56:02;101469.91;;;16.89;68.96
8575;BME280;4325;42.520;27.448;2023-02-23T08:58:31;101459.91;;;16.93;67.82
8575;BME280;4325;42.520;27.448;2023-02-23T09:00:58;101474.78;;;16.97;67.47
8575;BME280;4325;42.520;27.448;2023-02-23T09:03:26;101469.44;;;17.43;66.35
8575;BME280;4325;42.520;27.448;2023-02-23T09:05:55;101470.50;;;17.47;64.35
8575;BME280;4325;42.520;27.448;2023-02-23T09:08:22;101480.44;;;17.30;65.55
8575;BME280;4325;42.520;27.448;2023-02-23T09:10:50;101472.66;;;17.32;64.88
8575;BME280;4325;42.520;27.448;2023-02-23T09:13:18;101483.13;;;17.35;64.43
8575;BME280;4325;42.520;27.448;2023-02-23T09:15:44;101489.97;;;17.00;66.48
8575;BME280;4325;42.520;27.448;2023-02-23T09:18:12;101491.22;;;16.89;67.01
8575;BME280;4325;42.520;27.448;2023-02-23T09:20:40;101485.09;;;16.68;68.03
8575;BME280;4325;42.520;27.448;2023-02-23T09:23:08;101499.09;;;16.53;68.99
8575;BME280;4325;42.520;27.448;2023-02-23T09:25:38;101496.84;;;16.55;69.58
8575;BME280;4325;42.520;27.448;2023-02-23T09:28:10;101510.19;;;16.77;68.91
8575;BME280;4325;42.520;27.448;2023-02-23T09:30:38;101496.28;;;17.24;67.00
8575;BME280;4325;42.520;27.448;2023-02-23T09:33:06;101505.94;;;17.45;63.71
8575;BME280;4325;42.520;27.448;2023-02-23T09:35:33;101492.81;;;17.56;62.87
8575;BME280;4325;42.520;27.448;2023-02-23T09:38:00;101502.78;;;17.57;62.85
8575;BME280;4325;42.520;27.448;2023-02-23T09:40:30;101502.56;;;18.04;60.75
8575;BME280;4325;42.520;27.448;2023-02-23T09:43:05;101500.53;;;18.10;59.60
8575;BME280;4325;42.520;27.448;2023-02-23T09:45:40;101507.75;;;18.24;58.97
8575;BME280;4325;42.520;27.448;2023-02-23T09:48:14;101511.88;;;18.27;58.07
8575;BME280;4325;42.520;27.448;2023-02-23T09:50:45;101510.44;;;18.62;57.44
8575;BME280;4325;42.520;27.448;2023-02-23T09:53:23;101516.69;;;19.08;54.98
8575;BME280;4325;42.520;27.448;2023-02-23T09:55:52;101510.44;;;19.65;53.00
8575;BME280;4325;42.520;27.448;2023-02-23T09:58:22;101517.75;;;19.97;51.53
8575;BME280;4325;42.520;27.448;2023-02-23T10:01:13;101515.66;;;20.25;50.37
8575;BME280;4325;42.520;27.448;2023-02-23T10:03:49;101512.44;;;20.62;49.00
8575;BME280;4325;42.520;27.448;2023-02-23T10:06:18;101507.22;;;20.69;48.44
8575;BME280;4325;42.520;27.448;2023-02-23T10:08:54;101499.03;;;20.64;48.76
8575;BME280;4325;42.520;27.448;2023-02-23T10:11:28;101506.53;;;20.11;48.73
8575;BME280;4325;42.520;27.448;2023-02-23T10:14:15;101510.63;;;19.69;50.38
8575;BME280;4325;42.520;27.448;2023-02-23T10:17:08;101511.06;;;19.62;50.77
8575;BME280;4325;42.520;27.448;2023-02-23T10:19:45;101504.38;;;20.52;48.35
8575;BME280;4325;42.520;27.448;2023-02-23T10:22:17;101502.09;;;20.93;47.58
8575;BME280;4325;42.520;27.448;2023-02-23T10:24:49;101492.72;;;21.29;45.80
8575;BME280;4325;42.520;27.448;2023-02-23T10:27:19;101506.69;;;21.63;45.31
8575;BME280;4325;42.520;27.448;2023-02-23T10:29:48;101510.59;;;21.36;45.45
8575;BME280;4325;42.520;27.448;2023-02-23T10:32:23;101508.63;;;20.89;46.48
8575;BME280;4325;42.520;27.448;2023-02-23T10:34:54;101509.66;;;21.01;46.80
8575;BME280;4325;42.520;27.448;2023-02-23T10:37:22;101511.16;;;21.90;44.64
8575;BME280;4325;42.520;27.448;2023-02-23T10:39:50;101508.13;;;22.38;43.39
8575;BME280;4325;42.520;27.448;2023-02-23T10:42:21;101506.59;;;22.57;42.44
8575;BME280;4325;42.520;27.448;2023-02-23T10:44:52;101504.56;;;22.11;42.96
8575;BME280;4325;42.520;27.448;2023-02-23T10:47:23;101514.41;;;22.00;43.52
8575;BME280;4325;42.520;27.448;2023-02-23T10:49:54;101519.78;;;22.31;42.76
8575;BME280;4325;42.520;27.448;2023-02-23T10:52:25;101516.97;;;22.40;42.21
8575;BME280;4325;42.520;27.448;2023-02-23T10:54:54;101507.81;;;22.30;42.78
8575;BME280;4325;42.520;27.448;2023-02-23T10:57:22;101506.50;;;22.83;41.82
8575;BME280;4325;42.520;27.448;2023-02-23T11:00:21;101515.63;;;23.59;41.22
8575;BME280;4325;42.520;27.448;2023-02-23T11:02:53;101523.66;;;23.40;40.20
8575;BME280;4325;42.520;27.448;2023-02-23T11:05:42;101514.78;;;23.00;40.72
8575;BME280;4325;42.520;27.448;2023-02-23T11:08:30;101502.97;;;22.57;41.43
8575;BME280;4325;42.520;27.448;2023-02-23T11:11:08;101504.09;;;22.09;42.51
8575;BME280;4325;42.520;27.448;2023-02-23T11:13:45;101511.09;;;21.81;42.93
8575;BME280;4325;42.520;27.448;2023-02-23T11:16:14;101500.63;;;21.95;42.71
8575;BME280;4325;42.520;27.448;2023-02-23T11:18:51;101508.06;;;22.55;41.94
8575;BME280;4325;42.520;27.448;2023-02-23T11:21:24;101508.34;;;22.79;41.06
8575;BME280;4325;42.520;27.448;2023-02-23T11:23:55;101496.22;;;23.04;40.75
8575;BME280;4325;42.520;27.448;2023-02-23T11:26:32;101507.78;;;23.23;40.42
8575;BME280;4325;42.520;27.448;2023-02-23T11:29:08;101510.44;;;23.70;39.02
8575;BME280;4325;42.520;27.448;2023-02-23T11:31:38;101504.38;;;24.66;37.45
8575;BME280;4325;42.520;27.448;2023-02-23T11:34:06;101492.63;;;25.85;35.70
8575;BME280;4325;42.520;27.448;2023-02-23T11:36:34;101502.72;;;26.13;34.61
8575;BME280;4325;42.520;27.448;2023-02-23T11:39:18;101500.53;;;26.50;33.94
8575;BME280;4325;42.520;27.448;2023-02-23T11:42:03;101496.78;;;27.24;32.83
8575;BME280;4325;42.520;27.448;2023-02-23T11:44:30;101502.53;;;27.82;31.83
8575;BME280;4325;42.520;27.448;2023-02-23T11:46:57;101509.81;;;28.02;31.13
8575;BME280;4325;42.520;27.448;2023-02-23T11:49:29;101516.78;;;28.27;31.51
8575;BME280;4325;42.520;27.448;2023-02-23T11:51:59;101513.72;;;28.77;30.68
8575;BME280;4325;42.520;27.448;2023-02-23T11:54:27;101510.34;;;28.68;29.91
8575;BME280;4325;42.520;27.448;2023-02-23T11:56:55;101513.97;;;28.08;30.54
8575;BME280;4325;42.520;27.448;2023-02-23T11:59:29;101518.94;;;28.14;30.75
8575;BME280;4325;42.520;27.448;2023-02-23T12:02:03;101512.69;;;28.89;29.99
8575;BME280;4325;42.520;27.448;2023-02-23T12:04:35;101505.41;;;29.63;28.45
8575;BME280;4325;42.520;27.448;2023-02-23T12:07:36;101514.06;;;29.21;28.77
8575;BME280;4325;42.520;27.448;2023-02-23T12:10:13;101512.28;;;27.49;30.92
8575;BME280;4325;42.520;27.448;2023-02-23T12:12:47;101510.41;;;26.60;32.02
8575;BME280;4325;42.520;27.448;2023-02-23T12:15:23;101519.94;;;25.72;33.65
8575;BME280;4325;42.520;27.448;2023-02-23T12:17:57;101523.47;;;24.84;35.39
8575;BME280;4325;42.520;27.448;2023-02-23T12:20:29;101519.03;;;24.83;35.09
8575;BME280;4325;42.520;27.448;2023-02-23T12:23:01;101511.63;;;24.67;35.82
8575;BME280;4325;42.520;27.448;2023-02-23T12:25:34;101513.91;;;24.08;36.39
8575;BME280;4325;42.520;27.448;2023-02-23T12:28:09;101514.56;;;23.14;38.03
8575;BME280;4325;42.520;27.448;2023-02-23T12:30:42;101511.53;;;22.98;38.74
8575;BME280;4325;42.520;27.448;2023-02-23T12:33:15;101518.28;;;22.97;38.83
8575;BME280;4325;42.520;27.448;2023-02-23T12:35:55;101520.19;;;23.63;37.74
8575;BME280;4325;42.520;27.448;2023-02-23T12:38:28;101513.34;;;24.47;36.64
8575;BME280;4325;42.520;27.448;2023-02-23T12:41:02;101533.81;;;23.86;36.78
8575;BME280;4325;42.520;27.448;2023-02-23T12:43:36;101522.03;;;23.01;38.12
8575;BME280;4325;42.520;27.448;2023-02-23T12:46:09;101532.78;;;22.01;40.07
8575;BME280;4325;42.520;27.448;2023-02-23T12:48:45;101528.75;;;21.17;42.06
8575;BME280;4325;42.520;27.448;2023-02-23T12:51:23;101538.66;;;20.61;43.41
8575;BME280;4325;42.520;27.448;2023-02-23T12:53:53;101544.84;;;20.14;44.71
8575;BME280;4325;42.520;27.448;2023-02-23T12:56:30;101549.41;;;19.38;46.83
8575;BME280;4325;42.520;27.448;2023-02-23T12:59:06;101546.31;;;19.13;47.88
8575;BME280;4325;42.520;27.448;2023-02-23T13:01:43;101544.06;;;18.74;48.91
8575;BME280;4325;42.520;27.448;2023-02-23T13:04:26;101546.97;;;18.18;51.46
8575;BME280;4325;42.520;27.448;2023-02-23T13:07:05;101546.81;;;18.09;52.06
8575;BME280;4325;42.520;27.448;2023-02-23T13:09:45;101546.59;;;18.57;51.62
8575;BME280;4325;42.520;27.448;2023-02-23T13:12:26;101544.97;;;19.10;48.74
8575;BME280;4325;42.520;27.448;2023-02-23T13:15:00;101549.59;;;19.01;49.03
8575;BME280;4325;42.520;27.448;2023-02-23T13:17:39;101552.97;;;18.38;50.85
8575;BME280;4325;42.520;27.448;2023-02-23T13:20:15;101544.81;;;17.96;52.25
8575;BME280;4325;42.520;27.448;2023-02-23T13:22:48;101541.53;;;17.57;53.98
8575;BME280;4325;42.520;27.448;2023-02-23T13:25:26;101545.06;;;17.39;56.28
8575;BME280;4325;42.520;27.448;2023-02-23T13:27:57;101556.72;;;17.36;56.60
8575;BME280;4325;42.520;27.448;2023-02-23T13:30:25;101549.31;;;17.31;57.03